Time;durP1;ratioP1;P1;durP2;ratioP2;P2;SDS_P1;SDS_P2;PMS_P1;PMS_P2;Temp;Humidity;BMP_temperature;BMP_pressure;BME280_temperature;BME280_humidity;BME280_pressure;Samples;Min_cycle;Max_cycle;Signal;HPM_P1;HPM_P2
2021/03/16 00:00:50;;;;;;;3.83;1.63;;;2.80;99.90;;;;;;4997707;28;20933;-49
2021/03/16 00:03:35;;;;;;;2.13;1.20;;;2.80;99.90;;;;;;4979294;28;20192;-52
2021/03/16 00:06:18;;;;;;;6.07;1.07;;;2.80;99.90;;;;;;4989016;28;20243;-53
2021/03/16 00:08:44;;;;;;;6.83;1.60;;;2.70;99.90;;;;;;4988279;28;20878;-48
2021/03/16 00:11:10;;;;;;;4.47;1.40;;;2.70;99.90;;;;;;4989834;28;20188;-55
2021/03/16 00:13:36;;;;;;;5.00;1.30;;;2.70;99.90;;;;;;4985505;28;20302;-52
2021/03/16 00:16:02;;;;;;;3.13;1.23;;;2.70;99.90;;;;;;4991397;28;20661;-47
2021/03/16 00:18:27;;;;;;;6.10;1.03;;;2.60;99.90;;;;;;5006528;28;20212;-54
2021/03/16 00:20:53;;;;;;;5.37;1.10;;;2.60;99.90;;;;;;4995235;28;20622;-48
2021/03/16 00:23:19;;;;;;;4.47;1.20;;;2.60;99.90;;;;;;4994355;28;20188;-50
2021/03/16 00:25:45;;;;;;;2.80;1.20;;;2.60;99.90;;;;;;4985478;28;20541;-53
2021/03/16 00:28:11;;;;;;;3.40;1.10;;;2.60;99.90;;;;;;4989973;28;20182;-54
2021/03/16 00:30:36;;;;;;;5.60;1.40;;;2.50;99.90;;;;;;5000431;28;20220;-51
2021/03/16 00:33:02;;;;;;;2.40;1.17;;;2.50;99.90;;;;;;4998491;28;20188;-53
2021/03/16 00:35:28;;;;;;;1.33;1.00;;;2.50;99.90;;;;;;4990561;28;20188;-52
2021/03/16 00:37:54;;;;;;;5.10;1.07;;;2.50;99.90;;;;;;5004611;28;20218;-49
2021/03/16 00:40:19;;;;;;;1.77;0.90;;;2.40;99.90;;;;;;4986473;28;20173;-52
2021/03/16 00:42:46;;;;;;;3.23;1.07;;;2.40;99.90;;;;;;4984308;28;20979;-47
2021/03/16 00:45:12;;;;;;;5.80;0.80;;;2.40;99.90;;;;;;4985927;28;20679;-52
2021/03/16 00:47:38;;;;;;;1.50;0.80;;;2.40;99.90;;;;;;4981062;28;20211;-48
2021/03/16 00:50:06;;;;;;;4.03;1.00;;;2.30;99.90;;;;;;5004319;28;20254;-52
2021/03/16 00:52:32;;;;;;;2.80;1.00;;;2.30;99.90;;;;;;4985688;28;20948;-47
2021/03/16 00:54:58;;;;;;;2.83;0.90;;;2.30;99.90;;;;;;4994378;28;20195;-49
2021/03/16 00:57:23;;;;;;;2.63;0.70;;;2.30;99.90;;;;;;4997666;28;20209;-47
2021/03/16 00:59:49;;;;;;;1.30;1.20;;;2.30;99.90;;;;;;4994598;28;20195;-49
2021/03/16 01:02:15;;;;;;;2.33;0.93;;;2.20;99.90;;;;;;4992373;28;20184;-50
2021/03/16 01:04:41;;;;;;;0.90;0.90;;;2.20;99.90;;;;;;4990199;28;20899;-49
2021/03/16 01:07:06;;;;;;;3.70;1.10;;;2.20;99.90;;;;;;4988924;28;20295;-54
2021/03/16 01:09:32;;;;;;;1.80;0.80;;;2.20;99.90;;;;;;4990662;28;20247;-51
2021/03/16 01:11:58;;;;;;;1.80;0.97;;;2.10;99.90;;;;;;4989460;28;20180;-50
2021/03/16 01:14:23;;;;;;;2.00;1.00;;;2.10;99.90;;;;;;4985452;28;20196;-53
2021/03/16 01:16:49;;;;;;;1.10;0.80;;;2.10;99.90;;;;;;4985052;28;20211;-48
2021/03/16 01:19:15;;;;;;;0.80;0.80;;;2.10;99.90;;;;;;4987949;28;20201;-50
2021/03/16 01:21:40;;;;;;;2.20;1.00;;;2.10;99.90;;;;;;4988821;28;20595;-49
2021/03/16 01:24:06;;;;;;;3.67;0.70;;;2.10;99.90;;;;;;5001566;28;20207;-47
2021/03/16 01:26:32;;;;;;;2.17;1.17;;;2.00;99.90;;;;;;4981578;28;20196;-50
2021/03/16 01:28:58;;;;;;;2.13;0.90;;;2.00;99.90;;;;;;4990578;28;20647;-51
2021/03/16 01:31:24;;;;;;;1.93;1.10;;;2.00;99.90;;;;;;5000221;28;20637;-53
2021/03/16 01:33:49;;;;;;;2.33;0.83;;;2.00;99.90;;;;;;4988373;28;20247;-51
2021/03/16 01:36:15;;;;;;;3.00;0.83;;;1.90;99.90;;;;;;4995816;28;20216;-50
2021/03/16 01:38:40;;;;;;;1.13;0.90;;;1.90;99.90;;;;;;4979990;28;20895;-49
2021/03/16 01:41:06;;;;;;;2.33;0.87;;;1.90;99.90;;;;;;4992883;28;20315;-51
2021/03/16 01:43:32;;;;;;;1.73;0.93;;;1.90;99.90;;;;;;4982130;28;20265;-49
2021/03/16 01:45:58;;;;;;;3.97;0.90;;;1.90;99.90;;;;;;4985948;28;20191;-51
2021/03/16 01:48:31;;;;;;;2.40;0.87;;;1.90;99.90;;;;;;4981912;28;20184;-51
2021/03/16 01:50:58;;;;;;;2.77;0.93;;;1.80;99.90;;;;;;4987449;28;20199;-51
2021/03/16 01:53:24;;;;;;;1.53;0.90;;;1.80;99.90;;;;;;4994840;28;20263;-52
2021/03/16 01:55:52;;;;;;;3.43;0.97;;;1.80;99.90;;;;;;5002453;28;20900;-51
2021/03/16 01:58:18;;;;;;;4.50;0.93;;;1.70;99.90;;;;;;4984523;28;20204;-51
2021/03/16 02:01:02;;;;;;;3.23;0.80;;;1.70;99.90;;;;;;5000983;28;20189;-47
2021/03/16 02:03:47;;;;;;;3.33;1.10;;;1.70;99.90;;;;;;4983713;28;20235;-53
2021/03/16 02:06:46;;;;;;;1.10;0.67;;;1.70;99.90;;;;;;4987492;28;20447;-53
2021/03/16 02:09:52;;;;;;;1.97;1.00;;;1.60;99.90;;;;;;4986271;28;20242;-50
2021/03/16 02:12:46;;;;;;;1.80;0.83;;;1.60;99.90;;;;;;4983877;28;20256;-49
2021/03/16 02:15:35;;;;;;;2.93;1.13;;;1.60;99.90;;;;;;4981636;28;20182;-50
2021/03/16 02:18:23;;;;;;;3.13;1.10;;;1.60;99.90;;;;;;4979580;28;20218;-55
2021/03/16 02:21:16;;;;;;;4.40;0.77;;;1.50;99.90;;;;;;4983360;28;20195;-53
2021/03/16 02:24:09;;;;;;;1.90;0.93;;;1.50;99.90;;;;;;4985156;28;20194;-53
2021/03/16 02:27:16;;;;;;;2.90;1.20;;;1.50;99.90;;;;;;4983146;28;20230;-48
2021/03/16 02:30:03;;;;;;;1.37;1.00;;;1.50;99.90;;;;;;4999504;28;20244;-55
2021/03/16 02:32:48;;;;;;;2.30;1.27;;;1.50;99.90;;;;;;4990625;28;20218;-51
2021/03/16 02:35:34;;;;;;;1.00;0.90;;;1.50;99.90;;;;;;4981930;28;20253;-50
2021/03/16 02:38:22;;;;;;;4.40;1.03;;;1.50;99.90;;;;;;4993861;28;20248;-51
2021/03/16 02:41:09;;;;;;;6.00;1.27;;;1.40;99.90;;;;;;4997860;28;20210;-54
2021/03/16 02:43:54;;;;;;;3.10;1.17;;;1.40;99.90;;;;;;5004700;28;20271;-51
2021/03/16 02:46:42;;;;;;;3.77;0.80;;;1.40;99.90;;;;;;5005907;28;20229;-50
2021/03/16 02:49:28;;;;;;;3.33;1.03;;;1.40;99.90;;;;;;5003184;28;20890;-49
2021/03/16 02:52:15;;;;;;;0.93;0.70;;;1.40;99.90;;;;;;4999870;28;20654;-51
2021/03/16 02:55:00;;;;;;;6.10;1.37;;;1.30;99.90;;;;;;4986947;28;20291;-50
2021/03/16 02:57:46;;;;;;;2.90;1.30;;;1.30;99.90;;;;;;4976055;28;20715;-52
2021/03/16 03:00:30;;;;;;;4.10;1.10;;;1.30;99.90;;;;;;5003188;28;20257;-52
2021/03/16 03:03:15;;;;;;;3.13;1.60;;;1.30;99.90;;;;;;4984170;28;20267;-55
2021/03/16 03:06:01;;;;;;;3.53;1.07;;;1.20;99.90;;;;;;4986614;28;20190;-53
2021/03/16 03:08:46;;;;;;;3.93;1.07;;;1.30;99.90;;;;;;4988093;28;20284;-51
2021/03/16 03:11:32;;;;;;;3.40;1.00;;;1.20;99.90;;;;;;5003889;28;20190;-48
2021/03/16 03:14:16;;;;;;;1.90;0.90;;;1.20;99.90;;;;;;4989075;28;20266;-52
2021/03/16 03:17:02;;;;;;;2.10;1.37;;;1.20;99.90;;;;;;4987489;28;20249;-51
2021/03/16 03:19:46;;;;;;;3.60;1.47;;;1.20;99.90;;;;;;4986597;28;20190;-52
2021/03/16 03:22:48;;;;;;;2.67;1.03;;;1.20;99.90;;;;;;4981553;28;20970;-48
2021/03/16 03:25:50;;;;;;;1.80;1.13;;;1.10;99.90;;;;;;4997099;28;20225;-49
2021/03/16 03:28:36;;;;;;;8.93;1.13;;;1.10;99.90;;;;;;4990019;28;20229;-50
2021/03/16 03:31:20;;;;;;;6.97;1.73;;;1.10;99.90;;;;;;4998556;28;20271;-51
2021/03/16 03:34:05;;;;;;;7.10;1.37;;;1.10;99.90;;;;;;4984624;28;20274;-50
2021/03/16 03:36:57;;;;;;;2.00;1.67;;;1.10;99.90;;;;;;4985412;28;20342;-51
2021/03/16 03:39:42;;;;;;;4.13;2.03;;;1.10;99.90;;;;;;4990937;28;20250;-52
2021/03/16 03:42:28;;;;;;;4.73;1.77;;;1.10;99.90;;;;;;5006697;28;20230;-48
2021/03/16 03:45:13;;;;;;;4.07;2.03;;;1.10;99.90;;;;;;4989807;28;20213;-54
2021/03/16 03:48:01;;;;;;;7.00;2.17;;;1.10;99.90;;;;;;5006427;28;20299;-52
2021/03/16 03:50:51;;;;;;;7.17;2.07;;;1.10;99.90;;;;;;5010190;28;20193;-54
2021/03/16 03:53:36;;;;;;;12.57;2.97;;;1.10;99.90;;;;;;5007331;28;20189;-47
2021/03/16 03:56:21;;;;;;;4.93;2.00;;;1.10;99.90;;;;;;5001725;28;20276;-53
2021/03/16 03:59:06;;;;;;;6.70;2.63;;;1.10;99.90;;;;;;5004603;28;20557;-54
2021/03/16 04:01:52;;;;;;;4.13;2.10;;;1.10;99.90;;;;;;5007283;28;20194;-51
2021/03/16 04:04:38;;;;;;;8.40;2.60;;;1.20;99.90;;;;;;4987207;28;20186;-54
2021/03/16 04:07:23;;;;;;;8.70;2.20;;;1.20;99.90;;;;;;4984546;28;20393;-52
2021/03/16 04:10:09;;;;;;;11.63;2.40;;;1.20;99.90;;;;;;4986399;28;20205;-54
2021/03/16 04:12:54;;;;;;;8.30;2.10;;;1.20;99.90;;;;;;4997197;28;20230;-52
2021/03/16 04:15:39;;;;;;;6.97;1.73;;;1.20;99.90;;;;;;4987988;28;20242;-48
2021/03/16 04:18:25;;;;;;;10.53;2.37;;;1.30;99.90;;;;;;4994692;28;20295;-50
2021/03/16 04:21:09;;;;;;;10.33;2.70;;;1.30;99.90;;;;;;5004033;28;20274;-52
2021/03/16 04:23:55;;;;;;;11.73;2.90;;;1.30;99.90;;;;;;5005984;28;20197;-50
2021/03/16 04:26:39;;;;;;;8.77;2.20;;;1.30;99.90;;;;;;5003892;28;20653;-51
2021/03/16 04:29:23;;;;;;;18.17;2.30;;;1.30;99.90;;;;;;5005730;28;20245;-52
2021/03/16 04:32:07;;;;;;;8.10;2.10;;;1.30;99.90;;;;;;4989019;28;20227;-54
2021/03/16 04:34:52;;;;;;;16.90;2.27;;;1.40;99.90;;;;;;5001660;28;20213;-52
2021/03/16 04:37:38;;;;;;;9.33;2.63;;;1.40;99.90;;;;;;5005656;28;20221;-54
2021/03/16 04:40:23;;;;;;;10.53;2.50;;;1.50;99.90;;;;;;5003264;28;20964;-52
2021/03/16 04:43:09;;;;;;;10.33;2.60;;;1.50;99.90;;;;;;5000981;28;20678;-52
2021/03/16 04:45:53;;;;;;;12.63;3.73;;;1.60;99.90;;;;;;5005891;28;20206;-46
2021/03/16 04:48:38;;;;;;;14.30;4.20;;;1.70;99.90;;;;;;4993467;28;20214;-48
2021/03/16 04:51:23;;;;;;;12.63;3.87;;;1.80;99.90;;;;;;4982249;28;20195;-47
2021/03/16 04:54:07;;;;;;;16.73;4.10;;;1.80;99.90;;;;;;4985122;28;20207;-54
2021/03/16 04:56:52;;;;;;;17.20;5.90;;;1.90;99.90;;;;;;4987538;28;20219;-51
2021/03/16 04:59:36;;;;;;;17.93;4.87;;;2.00;99.90;;;;;;5002349;28;20285;-50
2021/03/16 05:02:20;;;;;;;21.90;5.33;;;2.00;99.90;;;;;;4985277;28;20198;-51
2021/03/16 05:05:05;;;;;;;18.73;5.77;;;2.10;99.90;;;;;;4996657;28;20276;-53
2021/03/16 05:07:49;;;;;;;22.90;6.37;;;2.10;99.90;;;;;;4997222;28;20227;-52
2021/03/16 05:10:34;;;;;;;28.63;8.77;;;2.10;99.90;;;;;;5003877;28;20192;-48
2021/03/16 05:13:19;;;;;;;21.97;8.13;;;2.20;99.90;;;;;;4997378;28;20614;-51
2021/03/16 05:16:04;;;;;;;25.07;8.83;;;2.20;99.90;;;;;;5002048;28;20242;-50
2021/03/16 05:18:48;;;;;;;20.67;9.33;;;2.30;99.90;;;;;;5001644;28;20198;-46
2021/03/16 05:21:32;;;;;;;30.90;11.23;;;2.30;99.90;;;;;;4985598;28;20207;-49
2021/03/16 05:24:16;;;;;;;32.87;11.70;;;2.30;99.90;;;;;;5001367;28;20191;-49
2021/03/16 05:27:00;;;;;;;39.57;14.60;;;2.30;99.90;;;;;;5005091;28;20227;-48
2021/03/16 05:29:44;;;;;;;37.53;13.07;;;2.40;99.90;;;;;;5000480;28;20295;-49
2021/03/16 05:32:28;;;;;;;36.70;13.80;;;2.40;99.90;;;;;;4979481;28;20258;-51
2021/03/16 05:35:12;;;;;;;38.43;14.70;;;2.50;99.90;;;;;;4996004;28;20194;-48
2021/03/16 05:37:57;;;;;;;46.57;16.43;;;2.50;99.90;;;;;;5000806;28;20268;-50
2021/03/16 05:40:42;;;;;;;38.67;15.67;;;2.60;99.90;;;;;;5005364;28;20204;-48
2021/03/16 05:43:27;;;;;;;42.80;16.73;;;2.60;99.90;;;;;;4998411;28;20251;-51
2021/03/16 05:46:11;;;;;;;38.77;16.13;;;2.70;99.90;;;;;;5002777;28;20218;-52
2021/03/16 05:49:02;;;;;;;48.77;16.37;;;2.80;99.90;;;;;;4983673;28;20206;-52
2021/03/16 05:51:47;;;;;;;39.07;15.43;;;2.80;99.90;;;;;;4997785;28;20293;-52
2021/03/16 05:54:32;;;;;;;39.53;15.50;;;2.90;99.90;;;;;;4997342;28;20288;-50
2021/03/16 05:57:16;;;;;;;36.47;13.90;;;3.00;99.90;;;;;;4998600;28;20215;-48
2021/03/16 06:00:00;;;;;;;32.67;14.70;;;3.00;99.90;;;;;;4994198;28;20246;-46
2021/03/16 06:02:44;;;;;;;35.87;14.10;;;3.00;99.90;;;;;;5002508;28;20554;-54
2021/03/16 06:05:28;;;;;;;33.00;13.37;;;3.10;99.90;;;;;;4987953;28;20577;-48
2021/03/16 06:08:12;;;;;;;28.37;12.60;;;3.10;99.90;;;;;;4989407;28;20228;-53
2021/03/16 06:10:57;;;;;;;29.03;12.57;;;3.20;99.90;;;;;;5004531;28;20275;-49
2021/03/16 06:13:55;;;;;;;30.27;12.27;;;3.30;99.90;;;;;;4994588;28;20246;-50
2021/03/16 06:16:40;;;;;;;27.87;12.27;;;3.40;99.90;;;;;;4997852;28;20713;-46
2021/03/16 06:19:26;;;;;;;22.37;10.90;;;3.40;99.90;;;;;;4982107;28;20273;-49
2021/03/16 06:22:18;;;;;;;26.90;9.80;;;3.50;99.90;;;;;;4986696;28;20196;-52
2021/03/16 06:25:03;;;;;;;29.13;10.40;;;3.60;99.90;;;;;;4994714;28;20598;-51
2021/03/16 06:27:57;;;;;;;26.90;9.77;;;3.60;99.90;;;;;;5004736;28;20590;-47
2021/03/16 06:30:42;;;;;;;29.70;9.73;;;3.70;99.90;;;;;;4997547;28;20207;-48
2021/03/16 06:33:30;;;;;;;22.47;9.37;;;3.70;99.90;;;;;;5000435;28;20192;-47
2021/03/16 06:36:14;;;;;;;26.10;9.53;;;3.80;99.90;;;;;;4979588;28;20218;-54
2021/03/16 06:38:59;;;;;;;18.20;8.03;;;3.80;99.90;;;;;;5001296;28;20284;-50
2021/03/16 06:41:43;;;;;;;20.60;7.80;;;3.90;99.90;;;;;;4994548;28;20553;-46
2021/03/16 06:44:27;;;;;;;16.57;8.13;;;3.90;99.90;;;;;;4995868;28;20925;-50
2021/03/16 06:47:15;;;;;;;21.87;7.70;;;3.90;99.90;;;;;;4994816;28;20234;-49
2021/03/16 06:50:00;;;;;;;16.23;8.13;;;4.00;99.90;;;;;;4991138;28;20444;-47
2021/03/16 06:52:49;;;;;;;14.83;6.03;;;4.00;99.90;;;;;;5004380;28;20497;-53
2021/03/16 06:55:33;;;;;;;16.63;5.87;;;4.10;99.90;;;;;;4984086;28;20224;-51
2021/03/16 06:58:21;;;;;;;16.07;5.83;;;4.10;99.90;;;;;;4987926;28;20243;-48
2021/03/16 07:01:06;;;;;;;11.50;5.40;;;4.10;99.90;;;;;;4992750;28;20706;-48
2021/03/16 07:03:50;;;;;;;11.23;5.30;;;4.20;99.90;;;;;;4993857;28;20220;-48
2021/03/16 07:06:35;;;;;;;20.47;5.63;;;4.20;99.90;;;;;;4975638;28;20287;-53
2021/03/16 07:09:20;;;;;;;10.17;4.73;;;4.20;99.90;;;;;;4993988;28;20280;-52
2021/03/16 07:12:05;;;;;;;15.40;4.90;;;4.30;99.90;;;;;;4999678;28;20679;-52
2021/03/16 07:14:50;;;;;;;15.47;4.67;;;4.30;99.90;;;;;;4992822;28;20208;-52
2021/03/16 07:17:34;;;;;;;13.93;5.03;;;4.30;99.90;;;;;;4991612;28;20296;-53
2021/03/16 07:20:20;;;;;;;11.03;4.37;;;4.30;99.90;;;;;;5001953;28;20627;-49
2021/03/16 07:23:10;;;;;;;12.33;5.50;;;4.40;99.90;;;;;;4980601;28;20220;-51
2021/03/16 07:25:54;;;;;;;10.00;4.70;;;4.40;99.90;;;;;;4992464;28;20281;-48
2021/03/16 07:28:39;;;;;;;16.23;4.83;;;4.40;99.90;;;;;;4992055;28;20304;-51
2021/03/16 07:31:23;;;;;;;10.83;4.10;;;4.50;99.90;;;;;;4987540;28;20731;-52
2021/03/16 07:34:09;;;;;;;11.60;4.23;;;4.50;99.90;;;;;;4999069;28;20250;-49
2021/03/16 07:36:54;;;;;;;11.37;4.30;;;4.60;99.90;;;;;;4989746;28;20620;-48
2021/03/16 07:39:39;;;;;;;9.70;3.47;;;4.60;99.90;;;;;;4990421;28;20204;-50
2021/03/16 07:42:23;;;;;;;14.10;4.33;;;4.70;99.90;;;;;;4998391;28;20212;-52
2021/03/16 07:45:08;;;;;;;14.90;4.73;;;4.70;99.90;;;;;;5001290;28;20254;-45
2021/03/16 07:47:53;;;;;;;13.63;4.40;;;4.70;99.90;;;;;;4989995;28;20316;-55
2021/03/16 07:50:37;;;;;;;15.67;4.60;;;4.70;99.90;;;;;;4987256;28;20247;-46
2021/03/16 07:53:28;;;;;;;5.67;3.27;;;4.70;99.90;;;;;;4981763;28;20192;-54
2021/03/16 07:56:13;;;;;;;12.90;4.40;;;4.80;99.90;;;;;;4991970;28;20212;-52
2021/03/16 07:58:58;;;;;;;7.20;3.63;;;4.80;99.90;;;;;;4991571;28;20206;-49
2021/03/16 08:01:49;;;;;;;12.50;3.00;;;4.90;99.90;;;;;;5005951;28;20196;-51
2021/03/16 08:04:38;;;;;;;9.13;2.87;;;4.90;99.90;;;;;;4995081;28;20274;-52
2021/03/16 08:07:24;;;;;;;10.33;3.57;;;4.90;99.90;;;;;;4998528;28;20808;-48
2021/03/16 08:10:10;;;;;;;12.60;3.70;;;4.90;99.90;;;;;;4976705;28;20223;-50
2021/03/16 08:13:02;;;;;;;11.00;3.30;;;4.90;99.90;;;;;;4996551;28;20208;-50
2021/03/16 08:15:49;;;;;;;10.03;3.40;;;4.90;99.90;;;;;;4994766;28;20208;-46
2021/03/16 08:18:34;;;;;;;8.83;3.03;;;5.00;99.90;;;;;;4982435;28;20318;-50
2021/03/16 08:21:18;;;;;;;10.37;3.30;;;5.00;99.90;;;;;;4995276;28;20204;-50
2021/03/16 08:24:10;;;;;;;5.93;2.70;;;5.00;99.90;;;;;;4978046;28;20771;-48
2021/03/16 08:26:55;;;;;;;11.67;3.10;;;5.00;99.90;;;;;;4989143;28;20710;-50
2021/03/16 08:29:48;;;;;;;12.67;3.10;;;5.10;99.90;;;;;;5000662;28;20286;-52
2021/03/16 08:32:33;;;;;;;14.03;3.20;;;5.10;99.90;;;;;;4987474;28;20289;-51
2021/03/16 08:35:18;;;;;;;11.03;2.83;;;5.10;99.90;;;;;;4992913;28;20679;-53
2021/03/16 08:38:02;;;;;;;12.67;2.87;;;5.10;99.90;;;;;;4998634;28;20367;-53
2021/03/16 08:41:01;;;;;;;6.50;2.40;;;5.20;99.90;;;;;;4978077;28;20204;-48
2021/03/16 08:43:50;;;;;;;9.27;2.80;;;5.30;99.90;;;;;;4992689;28;20247;-50
2021/03/16 08:46:37;;;;;;;9.83;2.67;;;5.30;99.90;;;;;;4997269;28;20240;-50
2021/03/16 08:49:24;;;;;;;8.17;2.60;;;5.40;99.90;;;;;;4997153;28;20247;-48
2021/03/16 08:52:21;;;;;;;11.03;2.63;;;5.40;99.90;;;;;;5004897;28;20199;-52
2021/03/16 08:55:06;;;;;;;9.40;2.27;;;5.40;99.90;;;;;;4994138;28;20232;-50
2021/03/16 08:57:51;;;;;;;7.73;2.30;;;5.40;99.90;;;;;;4996144;28;20223;-49
2021/03/16 09:00:38;;;;;;;11.77;2.60;;;5.50;99.90;;;;;;5003014;28;20307;-48
2021/03/16 09:03:30;;;;;;;13.60;2.07;;;5.50;99.90;;;;;;4990510;28;20243;-51
2021/03/16 09:06:21;;;;;;;6.53;2.50;;;5.60;99.90;;;;;;4987005;28;20617;-51
2021/03/16 09:09:06;;;;;;;12.87;1.87;;;5.60;99.90;;;;;;4989634;28;20276;-53
2021/03/16 09:11:52;;;;;;;8.30;2.60;;;5.60;99.90;;;;;;4978696;28;20204;-50
2021/03/16 09:14:36;;;;;;;6.83;2.10;;;5.70;99.90;;;;;;4998366;28;20200;-48
2021/03/16 09:17:20;;;;;;;8.67;2.53;;;5.80;99.90;;;;;;5000133;28;20227;-52
2021/03/16 09:20:09;;;;;;;8.53;2.23;;;5.90;99.90;;;;;;4987475;28;20326;-48
2021/03/16 09:22:56;;;;;;;13.83;2.50;;;5.90;99.90;;;;;;5001998;28;20975;-49
2021/03/16 09:25:45;;;;;;;10.67;2.20;;;6.00;99.90;;;;;;4975163;28;20236;-49
2021/03/16 09:28:29;;;;;;;12.27;2.47;;;6.10;99.90;;;;;;4994264;28;20208;-51
2021/03/16 09:31:13;;;;;;;6.57;2.33;;;6.10;99.90;;;;;;4995101;28;20199;-51
2021/03/16 09:33:57;;;;;;;9.73;1.80;;;6.20;99.90;;;;;;4988813;28;20193;-49
2021/03/16 09:36:42;;;;;;;11.70;2.80;;;6.30;99.90;;;;;;4989024;28;20239;-51
2021/03/16 09:39:51;;;;;;;12.30;2.57;;;6.40;99.90;;;;;;4996796;28;20226;-54
2021/03/16 09:42:31;;;;;;;11.87;2.07;;;6.40;99.90;;;;;;4997065;28;20191;-50
2021/03/16 09:44:58;;;;;;;8.17;1.83;;;6.40;99.90;;;;;;5000533;28;20208;-51
2021/03/16 09:47:25;;;;;;;10.70;2.73;;;6.40;99.90;;;;;;5003130;28;20208;-50
2021/03/16 09:50:06;;;;;;;11.97;2.17;;;6.50;99.90;;;;;;4996245;28;20172;-53
2021/03/16 09:52:31;;;;;;;9.30;2.43;;;6.50;99.90;;;;;;5003297;28;20200;-54
2021/03/16 09:54:57;;;;;;;7.33;1.93;;;6.60;99.90;;;;;;4990820;28;20179;-54
2021/03/16 09:57:31;;;;;;;7.80;2.17;;;6.60;99.90;;;;;;4995332;28;20205;-53
2021/03/16 09:59:57;;;;;;;4.57;1.60;;;6.60;99.90;;;;;;4980578;28;20251;-50
2021/03/16 10:02:31;;;;;;;6.40;1.90;;;6.70;99.90;;;;;;4994041;28;20248;-52
2021/03/16 10:05:04;;;;;;;12.83;2.53;;;6.70;99.90;;;;;;5000365;28;20184;-53
2021/03/16 10:07:31;;;;;;;8.53;1.80;;;6.70;99.90;;;;;;4994899;28;20212;-54
2021/03/16 10:10:24;;;;;;;13.50;2.47;;;6.60;99.90;;;;;;5000764;28;20855;-49
2021/03/16 10:12:55;;;;;;;11.20;2.30;;;6.60;99.90;;;;;;4981522;28;20193;-50
2021/03/16 10:15:23;;;;;;;7.77;2.20;;;6.60;99.90;;;;;;4986032;28;20177;-48
2021/03/16 10:17:49;;;;;;;4.73;1.57;;;6.60;99.90;;;;;;4987922;28;20242;-48
2021/03/16 10:20:20;;;;;;;9.53;1.60;;;6.50;99.90;;;;;;4997120;28;20312;-51
2021/03/16 10:22:52;;;;;;;6.97;1.63;;;6.50;99.90;;;;;;4996094;28;20182;-52
2021/03/16 10:25:18;;;;;;;6.97;1.70;;;6.70;99.90;;;;;;4999797;28;20189;-49
2021/03/16 10:27:54;;;;;;;6.93;1.80;;;6.70;99.90;;;;;;4991099;28;20589;-51
2021/03/16 10:30:31;;;;;;;7.63;1.57;;;6.80;99.90;;;;;;4998279;28;20220;-52
2021/03/16 10:32:57;;;;;;;7.20;1.50;;;6.90;99.90;;;;;;4993472;28;20394;-51
2021/03/16 10:35:23;;;;;;;6.17;1.83;;;6.90;99.90;;;;;;4994931;28;20564;-52
2021/03/16 10:37:49;;;;;;;11.77;2.30;;;6.80;99.90;;;;;;4996596;28;20205;-51
2021/03/16 10:40:15;;;;;;;9.67;2.03;;;6.90;99.90;;;;;;4988408;28;20181;-50
2021/03/16 10:42:40;;;;;;;9.27;2.10;;;6.80;99.90;;;;;;4985643;28;20182;-54
2021/03/16 10:45:06;;;;;;;7.23;1.97;;;6.80;99.90;;;;;;4983232;28;20200;-53
2021/03/16 10:47:32;;;;;;;5.97;1.80;;;6.80;99.90;;;;;;4996811;28;20262;-53
2021/03/16 10:49:57;;;;;;;12.37;1.90;;;6.80;99.90;;;;;;4985445;28;20194;-50
2021/03/16 10:52:23;;;;;;;10.10;1.93;;;6.80;99.90;;;;;;4996051;28;20188;-49
2021/03/16 10:54:48;;;;;;;5.23;1.70;;;6.80;99.90;;;;;;5000062;28;20669;-46
2021/03/16 10:57:15;;;;;;;10.83;1.93;;;6.80;99.90;;;;;;5004708;28;20230;-52
2021/03/16 10:59:41;;;;;;;6.53;1.87;;;6.90;99.90;;;;;;4987375;28;20690;-48
2021/03/16 11:02:07;;;;;;;8.87;1.80;;;6.90;99.90;;;;;;4989177;28;22313;-46
2021/03/16 11:04:35;;;;;;;8.80;1.70;;;6.90;99.90;;;;;;5000899;28;20181;-54
2021/03/16 11:07:01;;;;;;;8.13;1.70;;;7.00;99.90;;;;;;4996155;28;20280;-51
2021/03/16 11:09:26;;;;;;;6.50;1.70;;;6.90;99.90;;;;;;4997012;28;20212;-51
2021/03/16 11:11:52;;;;;;;7.13;1.90;;;6.90;99.90;;;;;;4994998;28;20192;-52
2021/03/16 11:14:17;;;;;;;4.07;1.00;;;6.90;99.90;;;;;;4998389;28;20210;-50
2021/03/16 11:16:43;;;;;;;5.90;1.90;;;6.90;99.90;;;;;;4972264;28;20761;-51
2021/03/16 11:19:09;;;;;;;6.40;2.00;;;7.00;99.90;;;;;;4994752;28;20212;-53
2021/03/16 11:21:34;;;;;;;6.37;1.70;;;7.00;99.90;;;;;;4979796;28;20197;-49
2021/03/16 11:24:00;;;;;;;8.57;1.77;;;7.00;99.90;;;;;;4994585;28;20188;-53
2021/03/16 11:26:26;;;;;;;7.90;1.90;;;7.10;99.90;;;;;;4992681;28;20205;-53
2021/03/16 11:28:53;;;;;;;4.80;1.70;;;7.10;99.90;;;;;;5001365;28;20235;-53
2021/03/16 11:31:19;;;;;;;9.20;1.90;;;7.20;99.90;;;;;;4988525;28;20208;-53
2021/03/16 11:34:03;;;;;;;6.43;1.50;;;7.20;99.90;;;;;;4995864;28;20310;-51
2021/03/16 11:36:47;;;;;;;6.57;1.47;;;7.30;99.90;;;;;;4988366;28;20343;-50
2021/03/16 11:39:31;;;;;;;9.87;1.73;;;7.20;99.90;;;;;;4993775;28;20207;-53
2021/03/16 11:42:16;;;;;;;9.67;1.87;;;7.20;99.90;;;;;;4999885;28;20236;-49
2021/03/16 11:45:00;;;;;;;6.17;1.20;;;7.20;99.90;;;;;;4982875;28;20816;-52
2021/03/16 11:47:45;;;;;;;7.87;1.57;;;7.20;99.90;;;;;;4977678;28;20282;-52
2021/03/16 11:50:29;;;;;;;7.37;2.03;;;7.20;99.90;;;;;;4991244;28;20195;-51
2021/03/16 11:53:13;;;;;;;4.50;1.87;;;7.20;99.90;;;;;;4981606;28;20286;-53
2021/03/16 11:55:58;;;;;;;8.93;1.80;;;7.20;99.90;;;;;;4996820;28;20851;-50
2021/03/16 11:58:42;;;;;;;12.13;1.80;;;7.20;99.90;;;;;;4998785;28;20278;-50
2021/03/16 12:01:26;;;;;;;12.00;2.20;;;7.30;99.90;;;;;;4986162;28;20223;-51
2021/03/16 12:04:10;;;;;;;5.20;1.67;;;7.30;99.90;;;;;;4986422;28;20196;-49
2021/03/16 12:06:54;;;;;;;7.73;2.27;;;7.30;99.90;;;;;;4990231;28;20274;-53
2021/03/16 12:09:38;;;;;;;7.53;1.80;;;7.40;99.90;;;;;;4999746;28;20242;-48
2021/03/16 12:12:23;;;;;;;5.97;2.00;;;7.50;99.90;;;;;;4999132;28;20287;-49
2021/03/16 12:15:11;;;;;;;6.13;1.77;;;7.50;99.90;;;;;;4987290;28;20184;-52
2021/03/16 12:17:55;;;;;;;10.23;1.97;;;7.70;99.90;;;;;;4991303;28;20275;-53
2021/03/16 12:20:39;;;;;;;6.57;1.40;;;7.60;99.90;;;;;;5005387;28;20208;-50
2021/03/16 12:23:23;;;;;;;8.70;2.00;;;7.60;99.90;;;;;;4989475;28;20224;-52
2021/03/16 12:26:07;;;;;;;7.77;1.30;;;7.60;99.90;;;;;;5000756;28;20798;-53
2021/03/16 12:28:52;;;;;;;8.20;2.07;;;7.60;99.90;;;;;;5002351;28;20227;-50
2021/03/16 12:31:36;;;;;;;4.97;1.17;;;7.60;99.90;;;;;;4999163;28;20231;-48
2021/03/16 12:34:20;;;;;;;11.67;1.97;;;7.60;99.90;;;;;;4992353;28;20777;-47
2021/03/16 12:37:05;;;;;;;5.67;1.40;;;7.60;99.90;;;;;;4995111;28;20219;-51
2021/03/16 12:39:49;;;;;;;8.83;1.50;;;7.60;99.90;;;;;;4998578;28;20246;-48
2021/03/16 12:42:33;;;;;;;6.77;1.73;;;7.60;99.90;;;;;;5001945;28;20207;-48
2021/03/16 12:45:18;;;;;;;6.50;1.50;;;7.70;99.90;;;;;;4996982;28;20259;-49
2021/03/16 12:48:02;;;;;;;7.40;1.63;;;7.90;99.90;;;;;;4980525;28;20232;-55
2021/03/16 12:50:46;;;;;;;5.63;1.53;;;8.00;99.90;;;;;;4993739;28;20266;-51
2021/03/16 12:53:31;;;;;;;7.40;1.40;;;8.00;99.90;;;;;;4999595;28;20625;-50
2021/03/16 12:56:15;;;;;;;6.30;1.40;;;7.90;99.90;;;;;;4996444;28;21059;-48
2021/03/16 12:58:59;;;;;;;5.10;1.33;;;7.80;99.90;;;;;;4999085;28;20307;-53
2021/03/16 13:01:43;;;;;;;4.83;1.33;;;7.80;99.90;;;;;;5000078;28;20193;-50
2021/03/16 13:04:27;;;;;;;5.43;1.17;;;7.70;99.90;;;;;;4982438;28;20999;-49
2021/03/16 13:07:11;;;;;;;9.50;1.27;;;7.70;99.90;;;;;;4988096;28;20236;-51
2021/03/16 13:09:55;;;;;;;8.20;1.47;;;7.70;99.90;;;;;;4987000;28;20270;-52
2021/03/16 13:12:39;;;;;;;6.30;1.37;;;7.80;99.90;;;;;;5000474;28;20211;-50
2021/03/16 13:15:24;;;;;;;4.63;0.87;;;7.70;99.90;;;;;;4990396;28;20188;-50
2021/03/16 13:18:09;;;;;;;7.73;1.20;;;7.70;99.90;;;;;;4987967;28;21550;-53
2021/03/16 13:20:53;;;;;;;7.30;1.33;;;7.70;99.90;;;;;;5001528;28;20188;-52
2021/03/16 13:23:38;;;;;;;9.60;1.30;;;7.80;99.90;;;;;;5005146;28;20188;-47
2021/03/16 13:26:22;;;;;;;8.20;2.03;;;7.80;99.90;;;;;;4997569;28;20219;-50
2021/03/16 13:29:06;;;;;;;4.80;1.13;;;7.80;99.90;;;;;;4987410;28;20203;-49
2021/03/16 13:31:50;;;;;;;4.87;1.03;;;7.70;99.90;;;;;;4998655;28;20208;-49
2021/03/16 13:34:35;;;;;;;5.00;0.97;;;7.70;99.90;;;;;;4985209;28;20749;-47
2021/03/16 13:37:20;;;;;;;5.97;1.50;;;7.70;99.90;;;;;;5002645;28;20755;-49
2021/03/16 13:40:05;;;;;;;9.17;1.13;;;7.70;99.90;;;;;;4991461;28;20296;-52
2021/03/16 13:42:50;;;;;;;4.80;1.23;;;7.80;99.90;;;;;;4999735;28;20262;-52
2021/03/16 13:45:34;;;;;;;5.37;1.20;;;7.70;99.90;;;;;;4999450;28;20705;-47
2021/03/16 13:48:18;;;;;;;4.07;0.80;;;7.70;99.90;;;;;;5003369;28;20246;-51
2021/03/16 13:51:03;;;;;;;2.53;0.90;;;7.80;99.90;;;;;;4978695;28;20204;-47
2021/03/16 13:53:47;;;;;;;2.73;0.87;;;8.00;99.90;;;;;;4998733;28;20331;-50
2021/03/16 13:56:31;;;;;;;7.20;1.60;;;8.10;99.90;;;;;;4999005;28;20254;-52
2021/03/16 13:59:15;;;;;;;6.40;1.30;;;8.20;99.90;;;;;;4998050;28;20199;-50
2021/03/16 14:01:59;;;;;;;5.50;1.00;;;8.30;99.90;;;;;;4986846;28;20942;-49